sensor_id;sensor_type;location;lat;lon;timestamp;pressure;altitude;pressure_sealevel;temperature;humidity
47763;BME280;33526;42.690;23.322;2023-02-23T01:04:14;94745.72;;;5.89;66.84
47763;BME280;33526;42.690;23.322;2023-02-23T01:07:04;94728.19;;;5.66;66.99
47763;BME280;33526;42.690;23.322;2023-02-23T01:38:50;94911.50;;;6.87;67.17
47763;BME280;33526;42.690;23.322;2023-02-23T01:41:49;94728.41;;;5.59;67.27
47763;BME280;33526;42.690;23.322;2023-02-23T02:30:23;94911.59;;;6.10;71.43
47763;BME280;33526;42.690;23.322;2023-02-23T04:26:11;94934.06;;;5.15;74.99
47763;BME280;33526;42.690;23.322;2023-02-23T05:53:54;94921.03;;;4.83;73.31
47763;BME280;33526;42.690;23.322;2023-02-23T05:56:22;94986.28;;;5.17;73.84
47763;BME280;33526;42.690;23.322;2023-02-23T05:58:56;94989.41;;;5.19;74.20
47763;BME280;33526;42.690;23.322;2023-02-23T06:01:24;94855.50;;;4.31;73.50
47763;BME280;33526;42.690;23.322;2023-02-23T06:03:51;94999.41;;;5.29;73.54
47763;BME280;33526;42.690;23.322;2023-02-23T06:06:20;94854.09;;;4.39;73.39
47763;BME280;33526;42.690;23.322;2023-02-23T06:08:47;94911.50;;;4.84;73.40
47763;BME280;33526;42.690;23.322;2023-02-23T06:11:15;94914.09;;;4.91;73.08
47763;BME280;33526;42.690;23.322;2023-02-23T06:13:42;94912.53;;;4.90;72.75
47763;BME280;33526;42.690;23.322;2023-02-23T06:16:08;94907.50;;;5.02;72.42
47763;BME280;33526;42.690;23.322;2023-02-23T06:18:34;94910.59;;;5.04;72.93
47763;BME280;33526;42.690;23.322;2023-02-23T06:21:00;95005.03;;;5.71;72.34
47763;BME280;33526;42.690;23.322;2023-02-23T06:23:31;95006.44;;;5.63;72.21
47763;BME280;33526;42.690;23.322;2023-02-23T06:25:59;94858.22;;;4.64;72.67
47763;BME280;33526;42.690;23.322;2023-02-23T06:28:27;94934.53;;;5.27;72.46
47763;BME280;33526;42.690;23.322;2023-02-23T06:30:53;95011.41;;;5.85;72.38
47763;BME280;33526;42.690;23.322;2023-02-23T06:33:20;94971.91;;;5.51;71.92
47763;BME280;33526;42.690;23.322;2023-02-23T06:35:46;94971.81;;;5.55;71.93
47763;BME280;33526;42.690;23.322;2023-02-23T06:38:12;94964.50;;;5.61;71.54
47763;BME280;33526;42.690;23.322;2023-02-23T06:40:38;94904.09;;;5.40;71.42
47763;BME280;33526;42.690;23.322;2023-02-23T06:43:07;94956.59;;;5.89;72.90
47763;BME280;33526;42.690;23.322;2023-02-23T06:45:33;94938.81;;;5.73;70.38
47763;BME280;33526;42.690;23.322;2023-02-23T06:47:59;94969.44;;;5.83;70.33
47763;BME280;33526;42.690;23.322;2023-02-23T06:50:25;94929.69;;;5.60;69.73
47763;BME280;33526;42.690;23.322;2023-02-23T06:52:51;94944.16;;;5.81;69.33
47763;BME280;33526;42.690;23.322;2023-02-23T06:55:17;94927.69;;;5.31;70.25
47763;BME280;33526;42.690;23.322;2023-02-23T06:57:47;94922.16;;;5.31;70.74
47763;BME280;33526;42.690;23.322;2023-02-23T07:00:17;95028.59;;;5.96;71.19
47763;BME280;33526;42.690;23.322;2023-02-23T07:02:49;94892.72;;;5.21;70.88
47763;BME280;33526;42.690;23.322;2023-02-23T07:05:15;94887.53;;;5.23;70.42
47763;BME280;33526;42.690;23.322;2023-02-23T07:07:42;94973.25;;;5.89;70.06
47763;BME280;33526;42.690;23.322;2023-02-23T07:10:10;94971.47;;;5.95;69.71
47763;BME280;33526;42.690;23.322;2023-02-23T07:12:35;95016.78;;;6.47;69.48
47763;BME280;33526;42.690;23.322;2023-02-23T07:15:01;94944.91;;;6.10;68.93
47763;BME280;33526;42.690;23.322;2023-02-23T07:17:27;94964.91;;;6.31;68.34
47763;BME280;33526;42.690;23.322;2023-02-23T07:19:54;94883.34;;;5.86;67.80
47763;BME280;33526;42.690;23.322;2023-02-23T07:22:19;94931.47;;;6.22;67.51
47763;BME280;33526;42.690;23.322;2023-02-23T07:24:46;94979.56;;;6.70;67.37
47763;BME280;33526;42.690;23.322;2023-02-23T07:27:14;94890.16;;;6.11;66.66
47763;BME280;33526;42.690;23.322;2023-02-23T07:30:05;95018.81;;;7.33;66.00
47763;BME280;33526;42.690;23.322;2023-02-23T07:32:36;95018.16;;;7.28;66.10
47763;BME280;33526;42.690;23.322;2023-02-23T07:35:06;94969.94;;;6.97;65.83
47763;BME280;33526;42.690;23.322;2023-02-23T07:37:38;94884.78;;;6.55;65.17
47763;BME280;33526;42.690;23.322;2023-02-23T07:40:04;94884.19;;;6.73;64.84
47763;BME280;33526;42.690;23.322;2023-02-23T07:43:09;94908.34;;;6.98;64.78
47763;BME280;33526;42.690;23.322;2023-02-23T07:46:15;94914.56;;;7.15;64.73
47763;BME280;33526;42.690;23.322;2023-02-23T07:49:04;94917.03;;;7.35;63.93
47763;BME280;33526;42.690;23.322;2023-02-23T07:51:30;94847.50;;;6.78;63.45
47763;BME280;33526;42.690;23.322;2023-02-23T07:54:03;94944.22;;;7.53;63.51
47763;BME280;33526;42.690;23.322;2023-02-23T07:56:43;94829.78;;;6.63;63.77
47763;BME280;33526;42.690;23.322;2023-02-23T07:59:12;94889.78;;;7.08;64.01
47763;BME280;33526;42.690;23.322;2023-02-23T08:01:48;94933.22;;;7.50;64.18
47763;BME280;33526;42.690;23.322;2023-02-23T08:04:15;95003.78;;;8.00;63.77
47763;BME280;33526;42.690;23.322;2023-02-23T08:06:45;95009.72;;;8.11;63.91
47763;BME280;33526;42.690;23.322;2023-02-23T08:09:47;95009.47;;;8.18;63.37
47763;BME280;33526;42.690;23.322;2023-02-23T08:16:07;95004.13;;;8.55;62.29
47763;BME280;33526;42.690;23.322;2023-02-23T08:19:36;94989.31;;;8.68;62.04
47763;BME280;33526;42.690;23.322;2023-02-23T08:22:04;94998.56;;;8.96;61.53
47763;BME280;33526;42.690;23.322;2023-02-23T08:24:30;94918.19;;;8.54;60.42
47763;BME280;33526;42.690;23.322;2023-02-23T08:26:57;94882.72;;;8.45;60.04
47763;BME280;33526;42.690;23.322;2023-02-23T08:29:23;95014.41;;;9.17;59.75
47763;BME280;33526;42.690;23.322;2023-02-23T08:31:50;94884.03;;;8.31;59.83
47763;BME280;33526;42.690;23.322;2023-02-23T08:34:20;95018.00;;;9.27;59.59
47763;BME280;33526;42.690;23.322;2023-02-23T08:36:47;94900.75;;;8.72;59.36
47763;BME280;33526;42.690;23.322;2023-02-23T08:39:15;94938.13;;;8.93;59.44
47763;BME280;33526;42.690;23.322;2023-02-23T08:41:40;95007.97;;;9.39;59.20
47763;BME280;33526;42.690;23.322;2023-02-23T08:44:09;94967.63;;;9.22;58.95
47763;BME280;33526;42.690;23.322;2023-02-23T08:46:37;94837.00;;;8.33;58.87
47763;BME280;33526;42.690;23.322;2023-02-23T08:49:04;94971.06;;;9.44;58.66
47763;BME280;33526;42.690;23.322;2023-02-23T08:51:31;94993.25;;;9.66;58.32
47763;BME280;33526;42.690;23.322;2023-02-23T08:54:01;94856.94;;;8.72;58.11
47763;BME280;33526;42.690;23.322;2023-02-23T08:56:27;94998.50;;;9.92;57.64
47763;BME280;33526;42.690;23.322;2023-02-23T09:27:38;94985.84;;;11.28;53.84
47763;BME280;33526;42.690;23.322;2023-02-23T09:30:37;94923.56;;;10.94;53.88
47763;BME280;33526;42.690;23.322;2023-02-23T09:33:41;94846.47;;;10.69;52.88
47763;BME280;33526;42.690;23.322;2023-02-23T09:36:17;94827.03;;;10.75;52.15
47763;BME280;33526;42.690;23.322;2023-02-23T09:39:00;94997.22;;;11.97;51.93
47763;BME280;33526;42.690;23.322;2023-02-23T09:45:11;94994.53;;;11.78;51.82
47763;BME280;33526;42.690;23.322;2023-02-23T09:48:21;94989.69;;;11.79;52.12
47763;BME280;33526;42.690;23.322;2023-02-23T09:56:44;94835.25;;;11.02;51.09
47763;BME280;33526;42.690;23.322;2023-02-23T09:59:20;94978.78;;;12.05;50.91
47763;BME280;33526;42.690;23.322;2023-02-23T10:05:25;94833.50;;;11.29;49.64
47763;BME280;33526;42.690;23.322;2023-02-23T10:08:29;94857.75;;;11.62;49.32
47763;BME280;33526;42.690;23.322;2023-02-23T10:23:59;94964.56;;;13.18;47.13
47763;BME280;33526;42.690;23.322;2023-02-23T11:13:40;94813.06;;;13.71;44.72
47763;BME280;33526;42.690;23.322;2023-02-23T11:22:33;94899.00;;;14.67;43.76
47763;BME280;33526;42.690;23.322;2023-02-23T12:46:41;94702.84;;;16.01;37.60
47763;BME280;33526;42.690;23.322;2023-02-23T13:56:55;94767.69;;;16.24;38.77
47763;BME280;33526;42.690;23.322;2023-02-23T14:36:34;94771.50;;;14.87;45.76
47763;BME280;33526;42.690;23.322;2023-02-23T14:39:33;94699.69;;;14.11;46.65
47763;BME280;33526;42.690;23.322;2023-02-23T14:42:05;94672.44;;;13.86;46.93
47763;BME280;33526;42.690;23.322;2023-02-23T14:44:37;94829.09;;;14.98;47.33
47763;BME280;33526;42.690;23.322;2023-02-23T14:49:50;94699.41;;;14.04;47.68
47763;BME280;33526;42.690;23.322;2023-02-23T14:53:00;94776.28;;;14.70;46.59
47763;BME280;33526;42.690;23.322;2023-02-23T14:55:39;94723.34;;;14.31;46.04
47763;BME280;33526;42.690;23.322;2023-02-23T14:58:30;94829.09;;;14.98;45.90
47763;BME280;33526;42.690;23.322;2023-02-23T15:01:00;94833.94;;;14.91;46.01
47763;BME280;33526;42.690;23.322;2023-02-23T15:03:30;94782.75;;;14.44;46.23
47763;BME280;33526;42.690;23.322;2023-02-23T15:06:43;94846.63;;;14.70;46.63
47763;BME280;33526;42.690;23.322;2023-02-23T15:09:39;94719.41;;;13.80;46.98
47763;BME280;33526;42.690;23.322;2023-02-23T15:12:40;94844.63;;;14.44;46.91
47763;BME280;33526;42.690;23.322;2023-02-23T15:18:00;94689.72;;;12.94;47.50
47763;BME280;33526;42.690;23.322;2023-02-23T15:20:42;94734.63;;;13.15;47.89
47763;BME280;33526;42.690;23.322;2023-02-23T15:26:36;94802.81;;;13.42;48.30
47763;BME280;33526;42.690;23.322;2023-02-23T15:29:16;94697.06;;;12.45;48.80
47763;BME280;33526;42.690;23.322;2023-02-23T15:31:53;94875.41;;;13.49;49.26
47763;BME280;33526;42.690;23.322;2023-02-23T15:37:38;94780.22;;;12.48;50.31
47763;BME280;33526;42.690;23.322;2023-02-23T15:40:24;94818.25;;;12.70;50.40
47763;BME280;33526;42.690;23.322;2023-02-23T15:42:54;94731.34;;;11.84;51.05
47763;BME280;33526;42.690;23.322;2023-02-23T15:45:44;94901.94;;;12.92;51.50
47763;BME280;33526;42.690;23.322;2023-02-23T15:48:26;94729.63;;;11.57;51.85
47763;BME280;33526;42.690;23.322;2023-02-23T15:50:56;94831.28;;;12.22;52.16
47763;BME280;33526;42.690;23.322;2023-02-23T15:54:17;94919.03;;;12.73;52.45
47763;BME280;33526;42.690;23.322;2023-02-23T15:57:06;94806.78;;;11.88;52.76
47763;BME280;33526;42.690;23.322;2023-02-23T15:59:48;94921.94;;;12.49;53.10
47763;BME280;33526;42.690;23.322;2023-02-23T16:02:32;94744.31;;;11.22;53.65
47763;BME280;33526;42.690;23.322;2023-02-23T16:05:28;94765.81;;;11.31;53.94
47763;BME280;33526;42.690;23.322;2023-02-23T16:08:24;94853.34;;;11.85;54.29
47763;BME280;33526;42.690;23.322;2023-02-23T16:13:28;94749.25;;;10.88;55.03
47763;BME280;33526;42.690;23.322;2023-02-23T16:16:18;94930.06;;;12.02;55.63
47763;BME280;33526;42.690;23.322;2023-02-23T16:18:57;94756.47;;;10.80;55.58
47763;BME280;33526;42.690;23.322;2023-02-23T16:21:52;94827.34;;;11.16;56.20
47763;BME280;33526;42.690;23.322;2023-02-23T16:24:33;94830.03;;;11.10;56.58
47763;BME280;33526;42.690;23.322;2023-02-23T16:38:59;94915.00;;;11.22;58.45
47763;BME280;33526;42.690;23.322;2023-02-23T16:42:31;94967.59;;;11.42;58.95
47763;BME280;33526;42.690;23.322;2023-02-23T16:45:44;94806.06;;;10.12;59.43
47763;BME280;33526;42.690;23.322;2023-02-23T16:59:15;94899.28;;;10.43;61.00
47763;BME280;33526;42.690;23.322;2023-02-23T17:01:53;94986.03;;;10.91;61.26
47763;BME280;33526;42.690;23.322;2023-02-23T17:04:38;94974.88;;;10.82;61.53
47763;BME280;33526;42.690;23.322;2023-02-23T17:07:04;94881.63;;;10.18;61.72
47763;BME280;33526;42.690;23.322;2023-02-23T17:09:31;94985.94;;;10.76;62.22
47763;BME280;33526;42.690;23.322;2023-02-23T17:12:13;94918.53;;;10.31;62.29
47763;BME280;33526;42.690;23.322;2023-02-23T17:17:48;94991.72;;;10.73;63.00
47763;BME280;33526;42.690;23.322;2023-02-23T17:20:38;94874.88;;;9.91;63.04
47763;BME280;33526;42.690;23.322;2023-02-23T17:23:13;94922.31;;;10.19;63.38
47763;BME280;33526;42.690;23.322;2023-02-23T17:26:00;95012.25;;;10.60;63.78
47763;BME280;33526;42.690;23.322;2023-02-23T17:28:35;94896.31;;;9.76;64.56
47763;BME280;33526;42.690;23.322;2023-02-23T17:31:27;94858.53;;;9.47;65.01
47763;BME280;33526;42.690;23.322;2023-02-23T17:34:27;94891.38;;;9.62;65.23
47763;BME280;33526;42.690;23.322;2023-02-23T17:37:16;94819.94;;;9.09;65.78
47763;BME280;33526;42.690;23.322;2023-02-23T17:39:50;94918.97;;;9.69;66.07
47763;BME280;33526;42.690;23.322;2023-02-23T17:42:52;94901.28;;;9.72;66.31
47763;BME280;33526;42.690;23.322;2023-02-23T17:45:21;94941.72;;;9.95;66.45
47763;BME280;33526;42.690;23.322;2023-02-23T17:47:51;94814.06;;;8.97;66.83
47763;BME280;33526;42.690;23.322;2023-02-23T17:50:19;94814.53;;;8.96;67.21
47763;BME280;33526;42.690;23.322;2023-02-23T17:52:48;94883.31;;;9.27;67.66
47763;BME280;33526;42.690;23.322;2023-02-23T17:55:14;94928.91;;;9.42;68.58
47763;BME280;33526;42.690;23.322;2023-02-23T17:57:41;94824.56;;;8.66;68.69
47763;BME280;33526;42.690;23.322;2023-02-23T18:03:16;94856.63;;;8.79;69.33
47763;BME280;33526;42.690;23.322;2023-02-23T18:08:35;94813.16;;;8.32;70.58
47763;BME280;33526;42.690;23.322;2023-02-23T18:11:12;94897.53;;;8.83;70.66
47763;BME280;33526;42.690;23.322;2023-02-23T18:13:49;95017.91;;;9.49;71.15
47763;BME280;33526;42.690;23.322;2023-02-23T18:16:36;94965.28;;;9.11;71.79
47763;BME280;33526;42.690;23.322;2023-02-23T18:19:29;94829.31;;;8.06;71.95
47763;BME280;33526;42.690;23.322;2023-02-23T18:22:03;94933.28;;;8.75;72.12
47763;BME280;33526;42.690;23.322;2023-02-23T18:24:42;94872.34;;;8.46;72.83
47763;BME280;33526;42.690;23.322;2023-02-23T18:30:03;95011.66;;;9.27;72.79
47763;BME280;33526;42.690;23.322;2023-02-23T18:32:40;94820.44;;;7.89;73.11
47763;BME280;33526;42.690;23.322;2023-02-23T18:35:18;94897.34;;;8.36;73.74
47763;BME280;33526;42.690;23.322;2023-02-23T18:37:49;94834.69;;;7.91;73.39
47763;BME280;33526;42.690;23.322;2023-02-23T18:40:21;94951.06;;;8.68;73.46
47763;BME280;33526;42.690;23.322;2023-02-23T18:42:50;95024.22;;;9.22;73.46
47763;BME280;33526;42.690;23.322;2023-02-23T18:45:20;94929.63;;;8.47;73.73
47763;BME280;33526;42.690;23.322;2023-02-23T18:47:46;94961.72;;;8.60;74.01
47763;BME280;33526;42.690;23.322;2023-02-23T18:50:19;94909.56;;;8.30;74.16
47763;BME280;33526;42.690;23.322;2023-02-23T18:52:55;94841.09;;;7.79;74.19
47763;BME280;33526;42.690;23.322;2023-02-23T18:55:31;94862.34;;;7.85;73.58
47763;BME280;33526;42.690;23.322;2023-02-23T18:57:58;94935.69;;;8.23;74.67
47763;BME280;33526;42.690;23.322;2023-02-23T19:00:37;95042.53;;;8.92;74.82
47763;BME280;33526;42.690;23.322;2023-02-23T19:03:25;94948.56;;;8.30;74.89
47763;BME280;33526;42.690;23.322;2023-02-23T19:05:57;94971.63;;;8.30;75.25
47763;BME280;33526;42.690;23.322;2023-02-23T19:08:56;95051.16;;;8.75;76.15
47763;BME280;33526;42.690;23.322;2023-02-23T19:11:52;94919.34;;;7.81;75.92
47763;BME280;33526;42.690;23.322;2023-02-23T19:14:21;94865.53;;;7.31;76.38
47763;BME280;33526;42.690;23.322;2023-02-23T23:31:37;94933.09;;;6.70;84.01
